Time;durP1;ratioP1;P1;durP2;ratioP2;P2;SDS_P1;SDS_P2;PMS_P1;PMS_P2;Temp;Humidity;BMP_temperature;BMP_pressure;BME280_temperature;BME280_humidity;BME280_pressure;Samples;Min_cycle;Max_cycle;Signal;HPM_P1;HPM_P2
2021/01/12 00:01:42;;;;;;;22.63;13.98;;;-0.90;86.10;;;;;;5051939;28;20670;-80
2021/01/12 00:04:08;;;;;;;20.27;13.57;;;-0.80;85.60;;;;;;5052486;28;20215;-82
2021/01/12 00:06:36;;;;;;;23.40;14.55;;;-0.80;85.30;;;;;;5052295;28;20188;-82
2021/01/12 00:09:02;;;;;;;24.48;14.55;;;-0.70;85.30;;;;;;5051882;28;21016;-82
2021/01/12 00:11:29;;;;;;;21.33;13.45;;;-0.80;84.70;;;;;;5051973;28;20227;-82
2021/01/12 00:13:56;;;;;;;22.08;17.05;;;-0.90;85.20;;;;;;5052312;28;20200;-82
2021/01/12 00:16:22;;;;;;;20.90;15.10;;;-0.80;84.80;;;;;;5050832;28;20661;-83
2021/01/12 00:18:49;;;;;;;22.98;16.15;;;-0.70;85.50;;;;;;5051939;28;20208;-82
2021/01/12 00:21:15;;;;;;;23.38;14.70;;;-0.50;85.50;;;;;;5051740;28;20208;-82
2021/01/12 00:23:43;;;;;;;22.10;15.40;;;-0.50;84.60;;;;;;5051406;28;20235;-82
2021/01/12 00:26:10;;;;;;;21.98;14.77;;;-0.50;84.10;;;;;;5052452;28;20235;-82
2021/01/12 00:28:37;;;;;;;21.13;15.48;;;-0.40;84.40;;;;;;5051170;28;20235;-80
2021/01/12 00:31:04;;;;;;;20.85;14.25;;;-0.40;83.70;;;;;;5051386;28;20240;-80
2021/01/12 00:33:32;;;;;;;18.50;12.85;;;-0.30;84.00;;;;;;5052105;28;20193;-79
2021/01/12 00:36:03;;;;;;;19.55;14.65;;;-0.50;83.80;;;;;;5051743;28;20680;-80
2021/01/12 00:38:30;;;;;;;23.88;13.88;;;-0.60;83.60;;;;;;5051594;28;20228;-82
2021/01/12 00:40:57;;;;;;;23.13;13.60;;;-0.50;83.80;;;;;;5051804;28;20236;-82
2021/01/12 00:43:24;;;;;;;18.13;14.57;;;-0.60;85.00;;;;;;5051437;28;20211;-82
2021/01/12 00:45:51;;;;;;;21.88;15.02;;;-0.80;84.40;;;;;;5051308;28;20207;-82
2021/01/12 00:48:17;;;;;;;21.60;15.10;;;-0.60;84.40;;;;;;5051020;28;20220;-81
2021/01/12 00:50:44;;;;;;;18.48;14.02;;;-0.40;83.90;;;;;;5051446;28;20223;-81
2021/01/12 00:53:10;;;;;;;17.83;13.45;;;-0.40;83.50;;;;;;5051767;28;20253;-81
2021/01/12 00:55:36;;;;;;;23.00;15.07;;;-0.50;83.50;;;;;;5051423;28;20218;-82
2021/01/12 00:58:05;;;;;;;21.80;13.85;;;-0.50;83.80;;;;;;5050645;28;20285;-82
2021/01/12 01:00:31;;;;;;;15.43;11.35;;;-0.40;83.70;;;;;;5051175;28;20219;-82
2021/01/12 01:02:59;;;;;;;19.60;12.80;;;-0.40;83.70;;;;;;5052174;28;20206;-82
2021/01/12 01:05:25;;;;;;;19.38;13.35;;;-0.40;83.50;;;;;;5051142;28;20235;-81
2021/01/12 01:07:52;;;;;;;20.05;14.25;;;-0.40;83.90;;;;;;5050993;28;20727;-81
2021/01/12 01:10:18;;;;;;;18.42;13.38;;;-0.40;83.80;;;;;;5051511;28;20220;-82
2021/01/12 01:12:46;;;;;;;18.83;12.80;;;-0.30;84.00;;;;;;5050108;28;20207;-82
2021/01/12 01:15:15;;;;;;;22.75;15.63;;;-0.20;83.50;;;;;;5050987;28;20200;-81
2021/01/12 01:17:41;;;;;;;19.65;13.18;;;-0.30;84.40;;;;;;5050701;28;20231;-81
2021/01/12 01:20:09;;;;;;;19.63;14.02;;;-0.20;84.00;;;;;;5051299;28;20542;-82
2021/01/12 01:22:35;;;;;;;21.60;14.82;;;-0.10;83.90;;;;;;5051160;28;20682;-81
2021/01/12 01:25:02;;;;;;;19.75;14.93;;;0.10;83.40;;;;;;5051517;28;20215;-82
2021/01/12 01:27:28;;;;;;;21.30;14.38;;;0.00;83.20;;;;;;5050638;28;20192;-81
2021/01/12 01:29:54;;;;;;;18.45;11.38;;;0.10;83.20;;;;;;5051328;28;20253;-81
2021/01/12 01:32:22;;;;;;;19.20;11.65;;;0.10;83.70;;;;;;5051155;28;20257;-82
2021/01/12 01:34:48;;;;;;;16.10;12.13;;;0.00;83.70;;;;;;5051264;28;20780;-82
2021/01/12 01:37:17;;;;;;;17.10;11.57;;;-0.10;84.20;;;;;;5050624;28;20203;-81
2021/01/12 01:39:43;;;;;;;18.27;12.00;;;-0.20;84.70;;;;;;5050117;28;20275;-81
2021/01/12 01:42:09;;;;;;;20.50;11.73;;;-0.20;85.00;;;;;;5050962;28;20236;-79
2021/01/12 01:44:36;;;;;;;20.58;12.85;;;-0.10;85.10;;;;;;5050504;28;20238;-79
2021/01/12 01:47:02;;;;;;;21.63;12.32;;;-0.10;85.50;;;;;;5050353;28;20200;-79
2021/01/12 01:49:30;;;;;;;17.20;11.18;;;-0.10;85.20;;;;;;5050395;28;20223;-80
2021/01/12 01:51:56;;;;;;;22.40;13.55;;;0.00;85.20;;;;;;5050484;28;20192;-79
2021/01/12 01:54:24;;;;;;;13.40;10.52;;;0.00;84.80;;;;;;5049032;28;20215;-80
2021/01/12 01:56:50;;;;;;;16.40;11.07;;;0.10;85.00;;;;;;5050502;28;20227;-80
2021/01/12 01:59:17;;;;;;;16.45;11.05;;;0.10;85.20;;;;;;5050333;28;20192;-80
2021/01/12 02:01:45;;;;;;;15.85;12.27;;;0.20;85.60;;;;;;5050282;28;20215;-80
2021/01/12 02:04:24;;;;;;;17.83;10.82;;;0.20;85.40;;;;;;5050288;28;20219;-79
2021/01/12 02:06:54;;;;;;;16.77;11.18;;;0.20;85.40;;;;;;5049495;28;20195;-79
2021/01/12 02:09:30;;;;;;;14.40;10.63;;;0.30;85.20;;;;;;5047824;28;20283;-80
2021/01/12 02:12:02;;;;;;;14.23;10.57;;;0.00;84.80;;;;;;5045237;28;20298;-79
2021/01/12 02:14:33;;;;;;;13.27;10.27;;;-0.10;85.80;;;;;;5043587;28;20577;-80
2021/01/12 02:17:03;;;;;;;14.45;9.88;;;-0.20;86.40;;;;;;5050439;28;20199;-80
2021/01/12 02:19:31;;;;;;;15.48;10.88;;;-0.10;86.60;;;;;;5036634;28;20192;-80
2021/01/12 02:22:04;;;;;;;14.75;10.60;;;-0.20;86.30;;;;;;5051033;28;20729;-80
2021/01/12 02:24:35;;;;;;;18.25;11.40;;;0.00;87.10;;;;;;5050634;28;20206;-82
2021/01/12 02:27:05;;;;;;;13.25;9.75;;;0.20;86.60;;;;;;5050500;28;20243;-79
2021/01/12 02:29:33;;;;;;;13.02;10.07;;;0.30;86.40;;;;;;5050249;28;20291;-80
2021/01/12 02:32:01;;;;;;;13.90;10.02;;;0.20;86.50;;;;;;5050412;28;20205;-80
2021/01/12 02:34:29;;;;;;;10.98;8.88;;;0.20;86.80;;;;;;5050413;28;20318;-80
2021/01/12 02:36:59;;;;;;;15.15;10.07;;;0.30;86.80;;;;;;5050542;28;20200;-80
2021/01/12 02:39:28;;;;;;;9.48;7.97;;;0.00;86.40;;;;;;5052343;28;20238;-80
2021/01/12 02:41:57;;;;;;;12.00;8.48;;;0.10;87.00;;;;;;5054285;28;20196;-80
2021/01/12 02:44:25;;;;;;;13.88;9.07;;;0.00;87.20;;;;;;5063291;28;20235;-82
2021/01/12 02:46:54;;;;;;;13.13;9.55;;;0.00;87.40;;;;;;5054049;28;20719;-82
2021/01/12 02:49:23;;;;;;;12.07;8.45;;;0.10;87.60;;;;;;5044276;28;20196;-82
2021/01/12 02:51:50;;;;;;;13.10;9.65;;;0.10;87.20;;;;;;5054292;28;20219;-82
2021/01/12 02:54:18;;;;;;;15.73;9.10;;;0.30;87.20;;;;;;5053940;28;20191;-82
2021/01/12 02:56:45;;;;;;;12.00;8.90;;;0.30;86.80;;;;;;5054853;28;20242;-82
2021/01/12 02:59:15;;;;;;;11.27;8.10;;;0.10;86.60;;;;;;5053268;28;20759;-81
2021/01/12 03:01:44;;;;;;;13.70;8.10;;;0.00;87.20;;;;;;5053562;28;20261;-82
2021/01/12 03:04:11;;;;;;;8.25;7.30;;;0.10;87.60;;;;;;5054176;28;20192;-81
2021/01/12 03:06:38;;;;;;;11.43;9.32;;;0.00;87.20;;;;;;5054097;28;20191;-82
2021/01/12 03:09:06;;;;;;;10.77;7.45;;;0.10;87.50;;;;;;5053758;28;20214;-82
2021/01/12 03:11:33;;;;;;;12.70;8.45;;;0.00;87.70;;;;;;5053868;28;20224;-82
2021/01/12 03:13:59;;;;;;;13.93;9.10;;;0.00;87.60;;;;;;5054313;28;20677;-82
2021/01/12 03:16:27;;;;;;;9.05;8.02;;;0.00;87.60;;;;;;5053891;28;20625;-81
2021/01/12 03:18:53;;;;;;;10.55;7.25;;;0.20;87.80;;;;;;5053130;28;20210;-81
2021/01/12 03:21:20;;;;;;;11.98;8.20;;;0.20;87.70;;;;;;5053553;28;20204;-80
2021/01/12 03:23:46;;;;;;;8.57;6.70;;;0.30;88.00;;;;;;5053517;28;20196;-80
2021/01/12 03:26:12;;;;;;;7.18;6.47;;;0.50;87.70;;;;;;5053183;28;20207;-80
2021/01/12 03:28:39;;;;;;;10.20;8.45;;;0.40;87.90;;;;;;5052877;28;20196;-79
2021/01/12 03:31:05;;;;;;;12.48;7.53;;;0.40;86.80;;;;;;5053338;28;20304;-80
2021/01/12 03:33:33;;;;;;;12.18;7.90;;;0.50;87.30;;;;;;5052923;28;20234;-80
2021/01/12 03:36:00;;;;;;;12.68;7.97;;;0.50;87.00;;;;;;5053093;28;20550;-80
2021/01/12 03:38:26;;;;;;;11.55;7.43;;;0.70;87.30;;;;;;5052391;28;20208;-79
2021/01/12 03:40:54;;;;;;;9.65;7.20;;;0.50;86.90;;;;;;5053024;28;20203;-80
2021/01/12 03:43:21;;;;;;;12.57;7.13;;;0.60;87.60;;;;;;5053253;28;20618;-80
2021/01/12 03:45:47;;;;;;;8.50;7.20;;;0.60;87.30;;;;;;5052608;28;20218;-80
2021/01/12 03:48:14;;;;;;;11.90;7.22;;;0.70;87.70;;;;;;5052549;28;20196;-80
2021/01/12 03:50:41;;;;;;;9.93;7.57;;;0.60;87.60;;;;;;5051837;28;20223;-79
2021/01/12 03:53:07;;;;;;;8.80;6.97;;;0.60;87.70;;;;;;5052381;28;20196;-80
2021/01/12 03:55:34;;;;;;;10.13;6.32;;;0.60;88.70;;;;;;5053099;28;20188;-79
2021/01/12 03:58:01;;;;;;;9.93;6.78;;;0.60;88.70;;;;;;5052756;28;20203;-79
2021/01/12 04:00:27;;;;;;;12.32;7.72;;;0.60;88.30;;;;;;5052522;28;20204;-80
2021/01/12 04:02:54;;;;;;;10.82;7.30;;;0.50;88.20;;;;;;5053167;28;20251;-80
2021/01/12 04:05:20;;;;;;;8.55;6.35;;;0.30;88.90;;;;;;5052471;28;20249;-80
2021/01/12 04:07:47;;;;;;;8.35;6.35;;;0.60;89.20;;;;;;5052062;28;20215;-79
2021/01/12 04:10:14;;;;;;;9.77;6.47;;;0.60;88.60;;;;;;5052278;28;20372;-80
2021/01/12 04:12:40;;;;;;;10.82;8.02;;;0.50;88.90;;;;;;5051165;28;20728;-80
2021/01/12 04:15:08;;;;;;;9.05;6.28;;;0.50;89.10;;;;;;5052505;28;20254;-80
2021/01/12 04:17:34;;;;;;;6.57;5.22;;;0.60;89.60;;;;;;5052081;28;20193;-79
2021/01/12 04:20:00;;;;;;;9.10;6.88;;;0.50;89.20;;;;;;5052552;28;20196;-80
2021/01/12 04:22:27;;;;;;;13.15;6.63;;;0.50;89.40;;;;;;5052142;28;20584;-80
2021/01/12 04:24:54;;;;;;;10.68;6.45;;;0.60;90.10;;;;;;5052472;28;20204;-80
2021/01/12 04:27:20;;;;;;;9.32;7.15;;;0.70;90.00;;;;;;5052161;28;20258;-79
2021/01/12 04:29:47;;;;;;;8.13;6.72;;;0.80;90.10;;;;;;5052543;28;20283;-80
2021/01/12 04:32:13;;;;;;;9.68;6.65;;;0.80;89.80;;;;;;5052405;28;20197;-80
2021/01/12 04:34:40;;;;;;;6.72;5.68;;;0.60;89.60;;;;;;5051653;28;20207;-80
2021/01/12 04:37:06;;;;;;;7.45;6.20;;;0.60;90.10;;;;;;5051610;28;20211;-80
2021/01/12 04:39:33;;;;;;;8.82;7.93;;;0.60;90.40;;;;;;5052239;28;20200;-80
2021/01/12 04:42:00;;;;;;;10.30;6.20;;;0.70;90.10;;;;;;5053126;28;20210;-80
2021/01/12 04:44:26;;;;;;;9.90;6.07;;;0.90;90.10;;;;;;5052423;28;20192;-79
2021/01/12 04:46:53;;;;;;;11.63;7.15;;;0.90;89.60;;;;;;5051436;28;20544;-79
2021/01/12 04:49:19;;;;;;;8.95;6.60;;;0.80;89.70;;;;;;5050759;28;20245;-80
2021/01/12 04:51:46;;;;;;;11.55;7.15;;;0.90;89.60;;;;;;5051990;28;20223;-80
2021/01/12 04:54:12;;;;;;;9.20;7.20;;;1.10;89.70;;;;;;5052149;28;20570;-80
2021/01/12 04:56:39;;;;;;;9.48;6.43;;;1.10;89.20;;;;;;5052069;28;20208;-80
2021/01/12 04:59:06;;;;;;;10.57;6.97;;;0.90;88.80;;;;;;5051164;28;20220;-80
2021/01/12 05:01:33;;;;;;;9.20;7.65;;;0.70;89.10;;;;;;5052067;28;20672;-80
2021/01/12 05:04:04;;;;;;;10.88;7.25;;;0.70;89.90;;;;;;5051356;28;20219;-80
2021/01/12 05:06:30;;;;;;;8.73;6.35;;;0.70;89.90;;;;;;5039682;28;20188;-80
2021/01/12 05:08:57;;;;;;;15.77;7.45;;;0.70;90.00;;;;;;5051035;28;20200;-80
2021/01/12 05:11:29;;;;;;;9.60;7.43;;;0.90;90.30;;;;;;5052030;28;20231;-80
2021/01/12 05:13:57;;;;;;;10.15;7.80;;;0.80;89.90;;;;;;5052115;28;20725;-80
2021/01/12 05:16:25;;;;;;;10.90;7.68;;;0.80;90.00;;;;;;5050464;28;20291;-80
2021/01/12 05:18:53;;;;;;;10.25;7.97;;;0.70;89.70;;;;;;5050942;28;20200;-80
2021/01/12 05:21:19;;;;;;;11.80;8.38;;;0.80;90.20;;;;;;5045927;28;20222;-80
2021/01/12 05:24:00;;;;;;;12.40;7.90;;;1.10;90.40;;;;;;5050940;28;20673;-80
2021/01/12 05:26:32;;;;;;;11.93;7.13;;;1.10;90.00;;;;;;5048726;28;20325;-80
2021/01/12 05:29:00;;;;;;;9.98;7.38;;;1.00;89.80;;;;;;5050642;28;20188;-80
2021/01/12 05:31:28;;;;;;;10.18;7.40;;;1.10;90.00;;;;;;5031576;28;20243;-79
2021/01/12 05:33:55;;;;;;;11.57;8.60;;;1.00;90.00;;;;;;5044050;28;20200;-81
2021/01/12 05:36:21;;;;;;;9.98;7.65;;;1.20;90.20;;;;;;5051084;28;20207;-81
2021/01/12 05:38:48;;;;;;;10.60;7.50;;;1.10;90.00;;;;;;5050948;28;20611;-81
2021/01/12 05:41:16;;;;;;;9.23;7.32;;;1.10;90.50;;;;;;5051055;28;20241;-82
2021/01/12 05:43:44;;;;;;;10.65;7.28;;;1.20;90.60;;;;;;5063267;28;20217;-81
2021/01/12 05:46:12;;;;;;;8.93;7.75;;;1.10;90.60;;;;;;5072052;28;20203;-82
2021/01/12 05:48:41;;;;;;;8.88;6.40;;;1.10;90.90;;;;;;5052157;28;20224;-81
2021/01/12 05:51:08;;;;;;;15.32;8.60;;;1.10;90.80;;;;;;5050869;28;20216;-81
2021/01/12 05:54:05;;;;;;;9.32;7.88;;;1.10;90.80;;;;;;5051516;28;20932;-81
2021/01/12 05:56:32;;;;;;;9.93;7.22;;;1.10;91.00;;;;;;5051248;28;20200;-81
2021/01/12 05:59:00;;;;;;;10.50;7.00;;;1.00;91.10;;;;;;5051116;28;20584;-81
2021/01/12 06:01:43;;;;;;;13.27;7.70;;;0.90;91.60;;;;;;5051231;28;20216;-81
2021/01/12 06:04:11;;;;;;;16.60;7.32;;;0.90;91.90;;;;;;5051013;28;20326;-82
2021/01/12 06:06:38;;;;;;;7.60;5.05;;;1.00;92.20;;;;;;5046641;28;20196;-81
2021/01/12 06:09:06;;;;;;;10.65;6.60;;;0.80;92.40;;;;;;5051119;28;20203;-81
2021/01/12 06:11:35;;;;;;;11.52;8.00;;;0.80;92.70;;;;;;5051011;28;20255;-82
2021/01/12 06:14:09;;;;;;;7.75;6.47;;;0.80;92.90;;;;;;5052674;28;20204;-82
2021/01/12 06:16:39;;;;;;;10.13;7.15;;;0.90;92.70;;;;;;5055246;28;20253;-81
2021/01/12 06:19:17;;;;;;;7.43;5.93;;;1.00;92.80;;;;;;5054406;28;20269;-83
2021/01/12 06:22:18;;;;;;;10.05;6.55;;;1.10;92.60;;;;;;5048634;28;20287;-82
2021/01/12 06:24:59;;;;;;;7.18;5.60;;;1.10;92.30;;;;;;5054802;28;20196;-82
2021/01/12 06:27:28;;;;;;;8.38;6.65;;;1.00;92.20;;;;;;5056896;28;21052;-82
2021/01/12 06:29:57;;;;;;;9.55;7.10;;;0.90;92.40;;;;;;5075249;28;20235;-81
2021/01/12 06:32:25;;;;;;;8.55;7.00;;;1.00;92.70;;;;;;5047851;28;20200;-83
2021/01/12 06:34:54;;;;;;;10.48;7.00;;;1.10;92.70;;;;;;5051489;28;20223;-83
2021/01/12 06:37:22;;;;;;;12.50;6.40;;;1.00;92.60;;;;;;5052323;28;20192;-83
2021/01/12 06:39:52;;;;;;;9.45;6.78;;;1.00;92.60;;;;;;5052386;28;20283;-83
2021/01/12 06:42:23;;;;;;;10.25;6.95;;;1.10;92.60;;;;;;5054456;28;20222;-83
2021/01/12 06:44:51;;;;;;;12.02;7.32;;;1.10;92.60;;;;;;5054366;28;20542;-83
2021/01/12 06:47:21;;;;;;;8.45;6.32;;;1.00;92.40;;;;;;5054205;28;20224;-83
2021/01/12 06:49:48;;;;;;;6.80;5.75;;;1.00;92.60;;;;;;5054422;28;20200;-83
2021/01/12 06:52:16;;;;;;;9.32;6.57;;;1.10;92.60;;;;;;5054269;28;20229;-83
2021/01/12 06:54:44;;;;;;;8.70;6.50;;;1.20;92.60;;;;;;5054320;28;20250;-83
2021/01/12 06:57:12;;;;;;;8.07;6.13;;;1.10;92.40;;;;;;5053979;28;20196;-83
2021/01/12 06:59:41;;;;;;;8.48;6.05;;;1.20;92.60;;;;;;5055035;28;20215;-85
2021/01/12 07:02:19;;;;;;;7.15;6.22;;;1.20;92.50;;;;;;5053964;28;20196;-85
2021/01/12 07:04:58;;;;;;;10.02;7.55;;;1.20;92.70;;;;;;5052254;28;20669;-88
2021/01/12 07:07:28;;;;;;;8.20;6.72;;;1.40;92.70;;;;;;5055398;28;20203;-86
2021/01/12 07:09:57;;;;;;;8.32;6.90;;;1.50;92.50;;;;;;5058890;28;20249;-87
2021/01/12 07:12:26;;;;;;;8.63;6.93;;;1.60;92.30;;;;;;5052321;28;20192;-87
2021/01/12 07:14:56;;;;;;;10.43;7.60;;;1.50;92.30;;;;;;5062237;28;20290;-87
2021/01/12 07:17:25;;;;;;;6.80;5.65;;;1.40;92.60;;;;;;5065991;28;20549;-87
2021/01/12 07:20:17;;;;;;;8.80;6.30;;;1.50;92.60;;;;;;5055314;28;20212;-87
2021/01/12 07:22:53;;;;;;;7.22;4.95;;;1.30;92.70;;;;;;5054121;28;20204;-86
2021/01/12 07:25:23;;;;;;;9.63;6.43;;;1.30;93.10;;;;;;5050854;28;20192;-87
2021/01/12 07:28:08;;;;;;;7.63;5.60;;;1.40;93.30;;;;;;5051383;28;20199;-87
2021/01/12 07:30:37;;;;;;;9.68;6.70;;;1.50;93.20;;;;;;5035960;28;20211;-87
2021/01/12 07:33:05;;;;;;;8.90;6.07;;;1.40;93.20;;;;;;5051645;28;20235;-87
2021/01/12 07:35:34;;;;;;;10.40;7.47;;;1.50;93.40;;;;;;5051421;28;20188;-87
2021/01/12 07:38:02;;;;;;;8.82;6.85;;;1.50;93.30;;;;;;5051300;28;20211;-87
2021/01/12 07:40:29;;;;;;;9.25;7.03;;;1.50;93.50;;;;;;5051029;28;20196;-85
2021/01/12 07:42:58;;;;;;;7.95;6.68;;;1.50;93.60;;;;;;5051406;28;20196;-87
2021/01/12 07:45:27;;;;;;;9.93;6.55;;;1.70;93.50;;;;;;5051410;28;20711;-87
2021/01/12 07:47:55;;;;;;;10.02;7.07;;;1.60;93.50;;;;;;5051392;28;20200;-87
2021/01/12 07:50:22;;;;;;;6.50;5.68;;;1.70;93.90;;;;;;5050773;28;20245;-86
2021/01/12 07:52:49;;;;;;;6.40;5.78;;;1.70;93.80;;;;;;5050456;28;20200;-85
2021/01/12 07:55:17;;;;;;;10.45;7.10;;;1.70;93.80;;;;;;5050889;28;20203;-85
2021/01/12 07:57:45;;;;;;;8.65;6.00;;;1.60;93.90;;;;;;5050648;28;20200;-87
2021/01/12 08:00:14;;;;;;;7.20;5.90;;;1.70;94.10;;;;;;5030178;28;657890;-87
2021/01/12 08:02:42;;;;;;;6.78;5.07;;;1.60;94.00;;;;;;5055742;28;20670;-86
2021/01/12 08:05:12;;;;;;;8.27;6.57;;;1.70;94.10;;;;;;5054761;28;20192;-86
2021/01/12 08:07:39;;;;;;;7.30;6.10;;;1.70;94.10;;;;;;5055325;28;20200;-87
2021/01/12 08:10:07;;;;;;;8.93;5.65;;;1.70;94.40;;;;;;5059669;28;20198;-84
2021/01/12 08:12:35;;;;;;;8.73;6.72;;;1.70;94.40;;;;;;5076359;28;20199;-86
2021/01/12 08:15:12;;;;;;;6.65;5.80;;;1.70;94.50;;;;;;5062802;28;20230;-86
2021/01/12 08:17:47;;;;;;;6.95;5.95;;;1.70;94.60;;;;;;5054967;28;20204;-87
2021/01/12 08:20:15;;;;;;;9.35;6.03;;;1.80;94.50;;;;;;5055128;28;20194;-86
2021/01/12 08:22:47;;;;;;;10.02;6.90;;;1.90;94.50;;;;;;5055004;28;20203;-87
2021/01/12 08:25:14;;;;;;;7.22;6.18;;;1.80;94.70;;;;;;5055076;28;20200;-87
2021/01/12 08:27:47;;;;;;;10.00;5.65;;;1.90;94.70;;;;;;5071219;28;20702;-87
2021/01/12 08:30:16;;;;;;;5.35;4.68;;;1.80;95.00;;;;;;5074558;28;20206;-86
2021/01/12 08:32:50;;;;;;;7.68;6.15;;;1.90;95.30;;;;;;5069193;28;20200;-86
2021/01/12 08:35:18;;;;;;;7.57;6.10;;;1.90;95.40;;;;;;5055680;28;20276;-86
2021/01/12 08:37:47;;;;;;;9.93;6.30;;;2.10;95.70;;;;;;5054117;28;20653;-87
2021/01/12 08:40:16;;;;;;;6.60;5.32;;;1.90;95.90;;;;;;5055978;28;20204;-87
2021/01/12 08:42:45;;;;;;;6.53;5.20;;;2.00;96.30;;;;;;5055016;28;20199;-87
2021/01/12 08:45:14;;;;;;;6.25;4.88;;;2.00;96.40;;;;;;5054570;28;20660;-87
2021/01/12 08:47:41;;;;;;;4.88;4.00;;;2.00;96.70;;;;;;5054516;28;21081;-85
2021/01/12 08:50:09;;;;;;;7.05;5.05;;;2.00;96.90;;;;;;5054006;28;20208;-86
2021/01/12 08:52:38;;;;;;;6.97;4.80;;;2.10;96.50;;;;;;5054365;28;20204;-86
2021/01/12 08:55:15;;;;;;;4.70;4.18;;;2.30;96.50;;;;;;5054699;28;20200;-83
2021/01/12 08:57:43;;;;;;;5.30;3.97;;;2.20;96.30;;;;;;5054597;28;20199;-84
2021/01/12 09:00:12;;;;;;;6.20;4.43;;;2.30;96.50;;;;;;5054470;28;20200;-84
2021/01/12 09:02:38;;;;;;;6.18;4.75;;;2.20;96.70;;;;;;5057901;28;20664;-86
2021/01/12 09:05:07;;;;;;;5.68;4.55;;;2.30;96.80;;;;;;5060823;28;20230;-85
2021/01/12 09:07:33;;;;;;;5.38;4.38;;;2.20;97.00;;;;;;5053883;28;20245;-86
2021/01/12 09:10:00;;;;;;;5.05;3.80;;;2.20;97.10;;;;;;5053248;28;20223;-86
2021/01/12 09:12:27;;;;;;;5.57;4.80;;;2.20;97.20;;;;;;5054814;28;20374;-86
2021/01/12 09:14:56;;;;;;;5.30;4.63;;;2.30;97.40;;;;;;5053954;28;20671;-85
2021/01/12 09:17:23;;;;;;;5.72;4.82;;;2.50;98.00;;;;;;5053223;28;20554;-84
2021/01/12 09:19:51;;;;;;;6.78;4.20;;;2.30;97.30;;;;;;5053301;28;20223;-83
2021/01/12 09:22:17;;;;;;;5.85;5.15;;;2.30;97.50;;;;;;5052001;28;20192;-83
2021/01/12 09:24:49;;;;;;;5.45;4.25;;;2.20;97.90;;;;;;5053521;28;20202;-83
2021/01/12 09:27:21;;;;;;;6.60;5.15;;;2.30;97.90;;;;;;5053285;28;20231;-83
2021/01/12 09:29:48;;;;;;;6.03;4.65;;;2.30;98.10;;;;;;5052972;28;20200;-84
2021/01/12 09:32:29;;;;;;;6.45;4.82;;;2.40;98.10;;;;;;5053806;28;20224;-84
2021/01/12 09:34:56;;;;;;;8.57;5.10;;;2.50;98.20;;;;;;5054167;28;20253;-84
2021/01/12 09:37:23;;;;;;;5.82;4.63;;;2.50;98.20;;;;;;5053802;28;20734;-84
2021/01/12 09:39:54;;;;;;;4.95;4.30;;;2.50;98.40;;;;;;5052652;28;20204;-84
2021/01/12 09:42:24;;;;;;;3.85;3.38;;;2.60;98.20;;;;;;5054001;28;20215;-83
2021/01/12 09:44:51;;;;;;;3.85;3.17;;;2.60;98.30;;;;;;5053457;28;20203;-83
2021/01/12 09:47:18;;;;;;;4.55;3.22;;;2.50;98.30;;;;;;5053093;28;20212;-84
2021/01/12 09:49:46;;;;;;;2.25;2.05;;;2.50;98.60;;;;;;5052412;28;20624;-82
2021/01/12 09:52:15;;;;;;;3.40;2.42;;;2.50;98.70;;;;;;5054417;28;20231;-83
2021/01/12 09:54:45;;;;;;;4.10;3.10;;;2.50;98.70;;;;;;5054798;28;20215;-84
2021/01/12 09:57:12;;;;;;;1.65;1.55;;;2.50;99.10;;;;;;5053545;28;20680;-84
2021/01/12 09:59:39;;;;;;;4.50;2.55;;;2.50;99.40;;;;;;5054063;28;20747;-84
2021/01/12 10:02:06;;;;;;;2.63;2.20;;;2.40;99.50;;;;;;5053918;28;20541;-84
2021/01/12 10:04:33;;;;;;;2.45;2.25;;;2.50;99.80;;;;;;5054689;28;20214;-84
2021/01/12 10:07:01;;;;;;;1.48;1.38;;;2.50;99.90;;;;;;5053911;28;20195;-83
2021/01/12 10:09:28;;;;;;;2.45;2.25;;;2.40;99.90;;;;;;5053878;28;20283;-83
2021/01/12 10:11:56;;;;;;;2.63;2.42;;;2.40;99.90;;;;;;5054073;28;20577;-83
2021/01/12 10:14:25;;;;;;;2.40;2.15;;;2.30;99.90;;;;;;5052834;28;20737;-84
2021/01/12 10:16:52;;;;;;;3.08;2.58;;;2.20;99.90;;;;;;5054234;28;20215;-83
2021/01/12 10:19:19;;;;;;;3.88;2.28;;;2.40;99.90;;;;;;5054136;28;20184;-85
2021/01/12 10:21:48;;;;;;;2.38;2.17;;;2.40;99.90;;;;;;5054333;28;20230;-84
2021/01/12 10:24:16;;;;;;;3.28;2.88;;;2.50;99.90;;;;;;5054195;28;20188;-84
2021/01/12 10:26:44;;;;;;;2.97;2.13;;;2.80;99.90;;;;;;5054199;28;20207;-84
2021/01/12 10:29:11;;;;;;;3.20;2.90;;;2.30;99.90;;;;;;5053033;28;20264;-83
2021/01/12 10:31:43;;;;;;;3.15;2.30;;;2.40;99.90;;;;;;5053772;28;20738;-84
2021/01/12 10:34:11;;;;;;;2.80;2.40;;;2.30;99.90;;;;;;5053436;28;20234;-83
2021/01/12 10:36:37;;;;;;;2.90;2.60;;;2.20;99.90;;;;;;5053913;28;20529;-83
2021/01/12 10:39:05;;;;;;;4.32;3.45;;;2.20;99.90;;;;;;5052369;28;20205;-83
2021/01/12 10:41:39;;;;;;;3.15;2.85;;;2.30;99.90;;;;;;5052140;28;20197;-83
2021/01/12 10:44:08;;;;;;;2.00;1.80;;;2.30;99.90;;;;;;5052580;28;20655;-83
2021/01/12 10:46:34;;;;;;;4.25;1.73;;;2.40;99.90;;;;;;5053411;28;20200;-82
2021/01/12 10:49:01;;;;;;;2.17;2.00;;;2.40;99.90;;;;;;5052076;28;20222;-82
2021/01/12 10:51:28;;;;;;;1.75;1.58;;;2.30;99.90;;;;;;5052570;28;20244;-82
2021/01/12 10:53:54;;;;;;;3.72;2.05;;;2.30;99.90;;;;;;5052391;28;20192;-82
2021/01/12 10:56:21;;;;;;;1.90;1.80;;;2.40;99.90;;;;;;5051926;28;20654;-82
2021/01/12 10:58:48;;;;;;;1.60;1.50;;;2.30;99.90;;;;;;5051295;28;20202;-81
2021/01/12 11:01:16;;;;;;;1.70;1.60;;;2.20;99.90;;;;;;5054293;28;20230;-82
2021/01/12 11:03:44;;;;;;;2.17;1.50;;;2.40;99.90;;;;;;5055326;28;20206;-81
2021/01/12 11:06:11;;;;;;;2.13;1.40;;;2.20;99.90;;;;;;5054798;28;20192;-81
2021/01/12 11:08:37;;;;;;;2.70;1.90;;;2.20;99.90;;;;;;5054282;28;20195;-81
2021/01/12 11:11:04;;;;;;;1.60;1.50;;;2.20;99.90;;;;;;5053874;28;20281;-81
2021/01/12 11:13:30;;;;;;;2.03;1.70;;;2.30;99.90;;;;;;5054775;28;20215;-81
2021/01/12 11:15:58;;;;;;;2.53;2.33;;;2.20;99.90;;;;;;5051392;28;20230;-81
2021/01/12 11:18:24;;;;;;;2.70;2.00;;;2.20;99.90;;;;;;5052819;28;20198;-80
2021/01/12 11:20:52;;;;;;;1.55;1.45;;;2.10;99.90;;;;;;5034090;28;20227;-81
2021/01/12 11:23:18;;;;;;;1.95;1.55;;;2.20;99.90;;;;;;5051483;28;20649;-81
2021/01/12 11:26:03;;;;;;;2.78;1.50;;;2.20;99.90;;;;;;5054153;28;20200;-82
2021/01/12 11:29:28;;;;;;;1.42;1.33;;;2.20;99.90;;;;;;5051162;28;20200;-82
2021/01/12 11:32:07;;;;;;;1.60;1.50;;;2.30;99.90;;;;;;5035813;28;20239;-82
2021/01/12 11:34:34;;;;;;;1.80;1.70;;;2.10;99.90;;;;;;5052094;28;20202;-81
2021/01/12 11:37:01;;;;;;;1.05;1.05;;;2.30;99.90;;;;;;5052067;28;20662;-82
2021/01/12 11:39:28;;;;;;;1.35;1.25;;;2.40;99.90;;;;;;5051525;28;20212;-81
2021/01/12 11:41:55;;;;;;;1.38;1.25;;;2.50;99.90;;;;;;5050300;28;20199;-81
2021/01/12 11:44:46;;;;;;;1.60;1.50;;;2.50;99.90;;;;;;5051665;28;20188;-81
2021/01/12 11:47:14;;;;;;;1.40;1.30;;;2.50;99.90;;;;;;5050993;28;20204;-81
2021/01/12 11:49:42;;;;;;;2.75;1.95;;;2.40;99.90;;;;;;5050772;28;20200;-81
2021/01/12 11:52:11;;;;;;;2.90;1.55;;;2.30;99.90;;;;;;5051331;28;20212;-82
2021/01/12 11:54:38;;;;;;;2.08;1.65;;;2.40;99.90;;;;;;5051780;28;20207;-82
2021/01/12 11:57:09;;;;;;;1.65;1.55;;;2.50;99.90;;;;;;5050593;28;20606;-82
2021/01/12 11:59:36;;;;;;;1.70;1.60;;;2.60;99.90;;;;;;5051684;28;20214;-83
2021/01/12 12:02:03;;;;;;;1.10;1.00;;;2.50;99.90;;;;;;5052010;28;20318;-83
2021/01/12 12:04:31;;;;;;;1.10;1.00;;;2.40;99.90;;;;;;5051542;28;20551;-82
2021/01/12 12:07:00;;;;;;;1.33;1.30;;;2.20;99.90;;;;;;5050922;28;20555;-82
2021/01/12 12:09:31;;;;;;;1.20;1.10;;;2.20;99.90;;;;;;5051959;28;20662;-82
2021/01/12 12:12:00;;;;;;;1.38;1.27;;;2.20;99.90;;;;;;5050682;28;20693;-82
2021/01/12 12:14:32;;;;;;;1.40;1.30;;;2.30;99.90;;;;;;5051525;28;20269;-82
2021/01/12 12:17:01;;;;;;;1.10;0.82;;;2.40;99.90;;;;;;5051723;28;20203;-81
2021/01/12 12:19:34;;;;;;;1.38;1.00;;;2.10;99.90;;;;;;5050692;28;20663;-82
2021/01/12 12:22:01;;;;;;;2.20;1.20;;;2.10;99.90;;;;;;5051362;28;20227;-82
2021/01/12 12:24:29;;;;;;;1.85;1.30;;;2.10;99.90;;;;;;5051518;28;20200;-82
2021/01/12 12:26:59;;;;;;;1.10;1.00;;;2.20;99.90;;;;;;5051435;28;20212;-81
2021/01/12 12:29:26;;;;;;;1.58;1.42;;;2.20;99.90;;;;;;5048417;28;20679;-82
2021/01/12 12:31:55;;;;;;;1.80;1.23;;;2.20;99.90;;;;;;5049899;28;20631;-83
2021/01/12 12:34:23;;;;;;;3.67;1.83;;;2.10;99.90;;;;;;5050937;28;20233;-83
2021/01/12 12:36:50;;;;;;;1.33;1.23;;;2.10;99.90;;;;;;5051199;28;20200;-82
2021/01/12 12:39:17;;;;;;;0.88;0.60;;;2.00;99.90;;;;;;5050992;28;20196;-82
2021/01/12 12:41:43;;;;;;;1.00;1.00;;;2.00;99.90;;;;;;5050729;28;20230;-82
2021/01/12 12:44:11;;;;;;;1.20;1.20;;;2.00;99.90;;;;;;5050932;28;20614;-82
2021/01/12 12:46:38;;;;;;;1.40;1.30;;;2.10;99.90;;;;;;5050866;28;20211;-82
2021/01/12 12:49:04;;;;;;;1.02;0.95;;;2.20;99.90;;;;;;5050613;28;20231;-82
2021/01/12 12:51:35;;;;;;;0.90;0.85;;;2.10;99.90;;;;;;5051037;28;20228;-82
2021/01/12 12:54:08;;;;;;;1.30;0.98;;;2.10;99.90;;;;;;5050804;28;20699;-83
2021/01/12 12:56:35;;;;;;;2.30;2.10;;;2.30;99.90;;;;;;5051250;28;20200;-83
2021/01/12 12:59:02;;;;;;;2.10;1.80;;;2.20;99.90;;;;;;5049608;28;20199;-83